createdAt,value
2019-02-05T00:01:01.612Z,12.80
2019-02-05T00:03:31.116Z,13.80
2019-02-05T00:06:00.553Z,12.80
2019-02-05T00:08:30.129Z,13.07
2019-02-05T00:11:00.029Z,12.83
2019-02-05T00:13:29.531Z,15.00
2019-02-05T00:15:59.113Z,13.70
2019-02-05T00:18:28.549Z,13.10
2019-02-05T00:20:58.126Z,14.47
2019-02-05T00:23:27.595Z,12.80
2019-02-05T00:26:05.835Z,13.63
2019-02-05T00:28:28.164Z,13.07
2019-02-05T00:30:57.605Z,14.93
2019-02-05T00:33:27.035Z,13.80
2019-02-05T00:35:57.045Z,12.37
2019-02-05T00:38:27.158Z,13.00
2019-02-05T00:40:58.273Z,12.67
2019-02-05T00:43:27.690Z,13.53
2019-02-05T00:45:57.650Z,13.88
2019-02-05T00:48:27.782Z,12.80
2019-02-05T00:50:58.559Z,13.08
2019-02-05T00:53:31.095Z,13.37
2019-02-05T00:56:00.589Z,12.27
2019-02-05T00:58:31.736Z,12.00
2019-02-05T01:01:01.271Z,12.67
2019-02-05T01:03:31.673Z,12.00
2019-02-05T01:06:01.659Z,11.73
2019-02-05T01:08:31.175Z,12.13
2019-02-05T01:11:00.699Z,12.03
2019-02-05T01:13:30.127Z,13.03
2019-02-05T01:15:59.635Z,12.30
2019-02-05T01:18:29.237Z,12.27
2019-02-05T01:20:59.283Z,12.53
2019-02-05T01:23:29.383Z,12.57
2019-02-05T01:25:59.593Z,12.70
2019-02-05T01:28:29.635Z,12.67
2019-02-05T01:30:59.700Z,13.23
2019-02-05T01:33:29.913Z,13.43
2019-02-05T01:36:00.032Z,12.45
2019-02-05T01:38:30.083Z,11.90
2019-02-05T01:41:00.303Z,12.70
2019-02-05T01:43:30.428Z,12.43
2019-02-05T01:46:00.570Z,11.85
2019-02-05T01:48:30.711Z,13.47
2019-02-05T01:51:00.830Z,12.87
2019-02-05T01:53:30.968Z,13.07
2019-02-05T01:56:01.082Z,13.00
2019-02-05T01:58:31.239Z,13.13
2019-02-05T02:01:01.483Z,13.53
2019-02-05T02:03:31.481Z,12.27
2019-02-05T02:06:01.679Z,13.35
2019-02-05T02:08:31.911Z,13.07
2019-02-05T02:11:01.964Z,12.53
2019-02-05T02:13:32.114Z,14.40
2019-02-05T02:16:02.287Z,12.30
2019-02-05T02:18:32.365Z,13.23
2019-02-05T02:21:02.548Z,13.18
2019-02-05T02:23:32.863Z,14.10
2019-02-05T02:26:02.884Z,12.97
2019-02-05T02:28:32.875Z,14.13
2019-02-05T02:31:03.144Z,13.93
2019-02-05T02:33:33.148Z,14.17
2019-02-05T02:36:03.213Z,15.13
2019-02-05T02:38:33.362Z,14.00
2019-02-05T02:41:03.652Z,13.93
2019-02-05T02:43:33.666Z,14.50
2019-02-05T02:46:04.448Z,14.60
2019-02-05T02:48:34.026Z,15.40
2019-02-05T02:51:04.156Z,14.77
2019-02-05T02:53:34.188Z,15.20
2019-02-05T02:56:04.354Z,15.50
2019-02-05T02:58:34.433Z,16.93
2019-02-05T03:01:05.072Z,16.62
2019-02-05T03:03:34.605Z,16.07
2019-02-05T03:06:05.029Z,16.43
2019-02-05T03:08:34.947Z,16.60
2019-02-05T03:11:05.681Z,17.27
2019-02-05T03:13:35.437Z,17.43
2019-02-05T03:16:05.483Z,18.33
2019-02-05T03:18:35.423Z,17.87
2019-02-05T03:21:05.488Z,17.48
2019-02-05T03:23:35.637Z,17.47
2019-02-05T03:26:05.886Z,17.17
2019-02-05T03:28:35.900Z,17.73
2019-02-05T03:31:05.988Z,19.93
2019-02-05T03:33:37.151Z,19.47
2019-02-05T03:36:06.725Z,18.23
2019-02-05T03:38:36.399Z,21.90
2019-02-05T03:41:06.762Z,17.77
2019-02-05T03:43:36.890Z,19.63
2019-02-05T03:46:10.284Z,19.17
2019-02-05T03:48:40.147Z,18.83
2019-02-05T03:51:31.632Z,19.70
2019-02-05T03:54:05.117Z,17.93
2019-02-05T03:56:46.586Z,18.90
2019-02-05T03:59:24.879Z,19.50
2019-02-05T04:02:06.165Z,19.37
2019-02-05T04:05:01.609Z,18.53
2019-02-05T04:07:46.212Z,19.60
2019-02-05T04:10:24.795Z,19.00
2019-02-05T04:13:14.309Z,18.90
2019-02-05T04:16:03.306Z,19.50
2019-02-05T04:19:00.476Z,19.93
2019-02-05T04:21:49.654Z,21.13
2019-02-05T04:24:22.249Z,19.17
2019-02-05T04:26:57.355Z,18.97
2019-02-05T04:29:52.459Z,20.27
2019-02-05T04:32:27.682Z,19.57
2019-02-05T04:35:02.729Z,22.37
2019-02-05T04:37:49.958Z,19.67
2019-02-05T04:40:25.413Z,20.87
2019-02-05T04:43:06.948Z,20.93
2019-02-05T04:45:48.465Z,22.23
2019-02-05T04:48:32.883Z,20.37
2019-02-05T04:51:23.716Z,20.53
2019-02-05T04:54:02.035Z,21.80
2019-02-05T04:56:34.548Z,21.47
2019-02-05T04:59:24.319Z,22.30
2019-02-05T05:02:02.439Z,21.53
2019-02-05T05:04:42.528Z,22.80
2019-02-05T05:07:27.322Z,20.80
2019-02-05T05:09:58.011Z,22.17
2019-02-05T05:12:28.201Z,22.83
2019-02-05T05:14:57.873Z,23.27
2019-02-05T05:17:27.377Z,23.37
2019-02-05T05:19:56.955Z,21.30
2019-02-05T05:22:26.525Z,22.23
2019-02-05T05:24:56.195Z,21.63
2019-02-05T05:27:26.256Z,20.77
2019-02-05T05:29:56.038Z,21.80
2019-02-05T05:32:25.698Z,21.17
2019-02-05T05:34:55.134Z,23.00
2019-02-05T05:37:24.573Z,20.87
2019-02-05T05:39:54.154Z,23.13
2019-02-05T05:42:23.904Z,22.40
2019-02-05T05:44:53.345Z,23.17
2019-02-05T05:47:23.078Z,25.20
2019-02-05T05:49:52.520Z,23.27
2019-02-05T05:52:21.954Z,25.67
2019-02-05T05:54:51.459Z,23.50
2019-02-05T05:57:20.956Z,24.47
2019-02-05T05:59:54.123Z,24.93
2019-02-05T06:02:23.720Z,24.53
2019-02-05T06:04:54.529Z,21.07
2019-02-05T06:07:23.922Z,27.13
2019-02-05T06:09:53.439Z,25.87
2019-02-05T06:12:22.924Z,30.60
2019-02-05T06:14:52.468Z,29.40
2019-02-05T06:17:22.009Z,29.57
2019-02-05T06:19:52.139Z,29.63
2019-02-05T06:22:21.649Z,26.77
2019-02-05T06:24:51.247Z,25.57
2019-02-05T06:27:20.778Z,26.90
2019-02-05T06:29:50.495Z,26.33
2019-02-05T06:32:21.645Z,25.50
2019-02-05T06:34:51.229Z,27.37
2019-02-05T06:37:20.671Z,28.03
2019-02-05T06:39:50.102Z,31.97
2019-02-05T06:42:19.615Z,27.80
2019-02-05T06:44:49.519Z,28.00
2019-02-05T06:47:18.960Z,27.60
2019-02-05T06:49:48.453Z,28.32
2019-02-05T06:52:18.540Z,28.00
2019-02-05T06:54:48.639Z,25.95
2019-02-05T06:57:18.876Z,32.43
2019-02-05T06:59:48.917Z,29.37
2019-02-05T07:02:19.202Z,30.43
2019-02-05T07:04:49.736Z,30.83
2019-02-05T07:07:19.363Z,28.60
2019-02-05T07:09:49.460Z,30.17
2019-02-05T07:12:20.499Z,32.67
2019-02-05T07:14:50.371Z,34.40
2019-02-05T07:17:19.888Z,32.53
2019-02-05T07:19:49.982Z,30.03
2019-02-05T07:22:20.036Z,37.17
2019-02-05T07:24:50.165Z,32.80
2019-02-05T07:27:20.572Z,33.97
2019-02-05T07:29:51.207Z,33.77
2019-02-05T07:32:20.761Z,33.63
2019-02-05T07:34:50.765Z,34.65
2019-02-05T07:37:20.905Z,31.20
2019-02-05T07:39:50.997Z,38.67
2019-02-05T07:42:21.049Z,36.07
2019-02-05T07:44:51.202Z,32.77
2019-02-05T07:47:23.411Z,34.77
2019-02-05T07:49:52.397Z,36.17
2019-02-05T07:52:21.933Z,35.23
2019-02-05T07:54:51.717Z,32.13
2019-02-05T07:57:21.829Z,35.17
2019-02-05T07:59:51.994Z,35.60
2019-02-05T08:02:22.096Z,32.10
2019-02-05T08:04:52.232Z,37.60
2019-02-05T08:07:22.350Z,33.37
2019-02-05T08:09:52.562Z,34.83
2019-02-05T08:12:22.846Z,33.37
2019-02-05T08:14:53.047Z,35.38
2019-02-05T08:17:22.794Z,34.00
2019-02-05T08:19:53.020Z,34.40
2019-02-05T08:22:23.119Z,37.95
2019-02-05T08:24:53.326Z,34.50
2019-02-05T08:27:23.439Z,34.03
2019-02-05T08:29:53.713Z,38.78
2019-02-05T08:32:23.639Z,35.60
2019-02-05T08:34:53.916Z,39.27
2019-02-05T08:37:23.885Z,38.53
2019-02-05T08:39:54.033Z,36.70
2019-02-05T08:42:26.162Z,37.73
2019-02-05T08:44:55.653Z,38.67
2019-02-05T08:47:25.102Z,45.47
2019-02-05T08:49:54.560Z,34.40
2019-02-05T08:52:24.691Z,40.97
2019-02-05T08:54:54.721Z,39.60
2019-02-05T08:57:24.843Z,36.13
2019-02-05T08:59:54.973Z,34.50
2019-02-05T09:02:25.193Z,32.80
2019-02-05T09:04:55.200Z,38.33
2019-02-05T09:07:25.358Z,33.65
2019-02-05T09:09:55.493Z,33.28
2019-02-05T09:12:25.637Z,32.50
2019-02-05T09:14:55.643Z,33.10
2019-02-05T09:17:25.842Z,29.53
2019-02-05T09:19:58.064Z,30.97
2019-02-05T09:22:27.833Z,29.90
2019-02-05T09:24:57.276Z,31.13
2019-02-05T09:27:26.752Z,33.23
2019-02-05T09:29:56.414Z,32.30
2019-02-05T09:32:26.637Z,28.77
2019-02-05T09:34:56.661Z,28.77
2019-02-05T09:37:26.831Z,31.00
2019-02-05T09:39:56.927Z,34.57
2019-02-05T09:42:28.802Z,32.67
2019-02-05T09:44:58.271Z,28.97
2019-02-05T09:47:27.743Z,31.20
2019-02-05T09:49:57.529Z,30.87
2019-02-05T09:52:27.537Z,32.33
2019-02-05T09:54:57.810Z,29.87
2019-02-05T09:57:27.913Z,28.70
2019-02-05T09:59:58.521Z,30.13
2019-02-05T10:02:28.173Z,32.93
2019-02-05T10:04:58.717Z,30.10
2019-02-05T10:07:28.362Z,33.77
2019-02-05T10:09:58.564Z,32.87
2019-02-05T10:12:28.613Z,32.57
2019-02-05T10:14:58.749Z,32.37
2019-02-05T10:17:28.914Z,30.97
2019-02-05T10:19:59.123Z,27.37
2019-02-05T10:22:29.565Z,30.10
2019-02-05T10:24:59.298Z,29.10
2019-02-05T10:27:29.409Z,29.97
2019-02-05T10:29:59.674Z,33.13
2019-02-05T10:32:29.659Z,25.90
2019-02-05T10:34:59.797Z,27.87
2019-02-05T10:37:29.996Z,25.43
2019-02-05T10:40:00.371Z,28.30
2019-02-05T10:42:30.433Z,26.30
2019-02-05T10:45:00.366Z,27.60
2019-02-05T10:47:30.431Z,31.68
2019-02-05T10:50:00.496Z,27.70
2019-02-05T10:52:30.594Z,29.30
2019-02-05T10:55:00.867Z,26.60
2019-02-05T10:57:30.866Z,24.60
2019-02-05T11:00:08.595Z,29.03
2019-02-05T11:02:33.222Z,23.87
2019-02-05T11:05:02.792Z,25.53
2019-02-05T11:07:32.505Z,24.80
2019-02-05T11:10:02.262Z,22.80
2019-02-05T11:12:31.748Z,24.97
2019-02-05T11:15:01.665Z,24.53
2019-02-05T11:17:31.793Z,24.33
2019-02-05T11:20:02.093Z,27.50
2019-02-05T11:22:32.077Z,23.03
2019-02-05T11:25:02.179Z,21.27
2019-02-05T11:27:32.446Z,24.02
2019-02-05T11:30:02.430Z,24.33
2019-02-05T11:32:32.594Z,25.17
2019-02-05T11:35:02.696Z,23.37
2019-02-05T11:37:32.839Z,24.80
2019-02-05T11:40:03.032Z,22.40
2019-02-05T11:42:33.098Z,20.97
2019-02-05T11:45:03.480Z,23.87
2019-02-05T11:47:33.292Z,22.63
2019-02-05T11:50:06.334Z,26.20
2019-02-05T11:52:35.932Z,22.20
2019-02-05T11:55:08.522Z,25.00
2019-02-05T11:57:38.169Z,26.83
2019-02-05T12:00:11.726Z,28.00
2019-02-05T12:02:41.790Z,25.10
2019-02-05T12:05:11.396Z,28.13
2019-02-05T12:07:40.942Z,25.20
2019-02-05T12:10:12.872Z,27.10
2019-02-05T12:12:44.226Z,25.50
2019-02-05T12:15:18.274Z,28.53
2019-02-05T12:17:47.891Z,28.03
2019-02-05T12:20:19.493Z,25.83
2019-02-05T12:22:52.088Z,25.33
2019-02-05T12:25:25.330Z,27.33
2019-02-05T12:27:54.896Z,25.20
2019-02-05T12:30:27.084Z,27.80
2019-02-05T12:32:56.666Z,29.10
2019-02-05T12:35:26.308Z,25.07
2019-02-05T12:37:56.014Z,25.20
2019-02-05T12:40:25.914Z,26.40
2019-02-05T12:42:55.516Z,22.40
2019-02-05T12:45:33.840Z,25.47
2019-02-05T12:48:03.713Z,25.50
2019-02-05T12:50:35.710Z,25.13
2019-02-05T12:53:05.620Z,25.83
2019-02-05T12:55:35.276Z,25.60
2019-02-05T12:58:08.504Z,25.23
2019-02-05T13:00:56.394Z,21.33
2019-02-05T13:03:17.410Z,21.53
2019-02-05T13:05:47.368Z,22.83
2019-02-05T13:08:16.826Z,23.83
2019-02-05T13:10:48.740Z,21.93
2019-02-05T13:13:18.540Z,22.43
2019-02-05T13:15:48.476Z,20.50
2019-02-05T13:18:18.020Z,19.63
2019-02-05T13:20:47.647Z,23.70
2019-02-05T13:23:17.124Z,21.07
2019-02-05T13:25:46.738Z,19.47
2019-02-05T13:28:16.370Z,16.27
2019-02-05T13:30:47.752Z,18.87
2019-02-05T13:33:17.189Z,19.20
2019-02-05T13:35:47.112Z,19.80
2019-02-05T13:38:16.591Z,17.73
2019-02-05T13:40:46.124Z,20.13
2019-02-05T13:43:15.667Z,22.03
2019-02-05T13:45:45.359Z,21.43
2019-02-05T13:48:14.998Z,17.10
2019-02-05T13:50:44.725Z,16.77
2019-02-05T13:53:14.190Z,16.70
2019-02-05T13:55:44.698Z,16.10
2019-02-05T13:58:14.390Z,17.73
2019-02-05T14:00:49.265Z,17.83
2019-02-05T14:03:18.974Z,18.47
2019-02-05T14:05:49.169Z,14.57
2019-02-05T14:08:18.796Z,15.70
2019-02-05T14:10:48.506Z,16.87
2019-02-05T14:13:19.289Z,16.60
2019-02-05T14:15:50.593Z,17.23
2019-02-05T14:18:22.703Z,18.23
2019-02-05T14:20:51.570Z,19.00
2019-02-05T14:23:21.129Z,18.40
2019-02-05T14:25:51.691Z,16.20
2019-02-05T14:28:21.143Z,12.80
2019-02-05T14:30:53.432Z,16.10
2019-02-05T14:33:23.035Z,16.37
2019-02-05T14:35:52.637Z,17.73
2019-02-05T14:38:22.574Z,19.53
2019-02-05T14:40:52.080Z,16.43
2019-02-05T14:43:21.607Z,18.13
2019-02-05T14:45:51.212Z,14.93
2019-02-05T14:48:21.225Z,20.07
2019-02-05T14:50:50.841Z,14.37
2019-02-05T14:53:20.285Z,17.83
2019-02-05T14:55:49.826Z,13.67
2019-02-05T14:58:19.836Z,20.40
2019-02-05T15:00:49.379Z,18.40
2019-02-05T15:03:18.896Z,17.40
2019-02-05T15:05:48.620Z,15.27
2019-02-05T15:08:18.158Z,16.90
2019-02-05T15:10:47.704Z,16.53
2019-02-05T15:13:17.531Z,18.57
2019-02-05T15:15:47.080Z,18.97
2019-02-05T15:18:16.619Z,15.63
2019-02-05T15:20:47.931Z,17.10
2019-02-05T15:23:17.480Z,17.40
2019-02-05T15:25:47.088Z,16.37
2019-02-05T15:28:16.691Z,22.40
2019-02-05T15:30:46.238Z,19.23
2019-02-05T15:33:27.600Z,20.40
2019-02-05T15:35:58.809Z,23.27
2019-02-05T15:38:28.802Z,18.63
2019-02-05T15:40:58.931Z,18.13
2019-02-05T15:43:28.464Z,21.93
2019-02-05T15:45:57.996Z,22.73
2019-02-05T15:48:27.465Z,21.50
2019-02-05T15:50:57.994Z,22.53
2019-02-05T15:53:27.658Z,23.07
2019-02-05T15:55:57.306Z,22.80
2019-02-05T15:58:26.775Z,25.43
2019-02-05T16:00:56.430Z,21.77
2019-02-05T16:03:25.851Z,22.20
2019-02-05T16:05:55.469Z,22.33
2019-02-05T16:08:25.198Z,25.00
2019-02-05T16:10:54.776Z,20.33
2019-02-05T16:13:24.223Z,25.17
2019-02-05T16:15:53.783Z,24.50
2019-02-05T16:18:23.389Z,20.20
2019-02-05T16:20:52.872Z,24.97
2019-02-05T16:23:22.681Z,22.03
2019-02-05T16:25:52.152Z,20.63
2019-02-05T16:28:21.617Z,21.07
2019-02-05T16:30:51.094Z,20.13
2019-02-05T16:33:20.554Z,20.70
2019-02-05T16:35:51.480Z,19.00
2019-02-05T16:38:21.147Z,19.20
2019-02-05T16:40:50.727Z,19.97
2019-02-05T16:43:20.264Z,21.20
2019-02-05T16:45:49.755Z,20.07
2019-02-05T16:48:19.467Z,20.07
2019-02-05T16:50:49.583Z,19.57
2019-02-05T16:53:19.149Z,22.33
2019-02-05T16:55:49.276Z,19.07
2019-02-05T16:58:19.819Z,23.73
2019-02-05T17:00:49.610Z,21.33
2019-02-05T17:03:19.622Z,20.93
2019-02-05T17:05:49.737Z,22.80
2019-02-05T17:08:19.876Z,22.40
2019-02-05T17:10:50.132Z,23.43
2019-02-05T17:13:20.167Z,23.03
2019-02-05T17:15:52.031Z,23.53
2019-02-05T17:18:23.579Z,23.20
2019-02-05T17:20:52.829Z,21.90
2019-02-05T17:23:22.371Z,20.73
2019-02-05T17:25:53.452Z,17.57
2019-02-05T17:28:23.045Z,25.53
2019-02-05T17:30:52.575Z,22.67
2019-02-05T17:33:23.319Z,25.10
2019-02-05T17:35:52.919Z,24.87
2019-02-05T17:38:25.425Z,24.47
2019-02-05T17:40:54.665Z,24.03
2019-02-05T17:43:24.452Z,24.70
2019-02-05T17:45:54.096Z,24.57
2019-02-05T17:48:23.983Z,22.27
2019-02-05T17:50:53.530Z,23.33
2019-02-05T17:53:23.093Z,23.87
2019-02-05T17:55:53.394Z,25.02
2019-02-05T17:58:24.412Z,27.70
2019-02-05T18:00:56.679Z,28.70
2019-02-05T18:03:26.186Z,26.47
2019-02-05T18:05:56.471Z,23.27
2019-02-05T18:08:26.049Z,25.57
2019-02-05T18:10:55.591Z,26.83
2019-02-05T18:13:25.888Z,28.43
2019-02-05T18:15:58.087Z,28.87
2019-02-05T18:18:27.567Z,30.43
2019-02-05T18:20:58.325Z,30.33
2019-02-05T18:23:27.963Z,28.27
2019-02-05T18:25:57.442Z,32.60
2019-02-05T18:28:26.957Z,30.43
2019-02-05T18:30:58.033Z,35.47
2019-02-05T18:33:28.634Z,34.10
2019-02-05T18:35:58.189Z,35.43
2019-02-05T18:38:32.686Z,35.63
2019-02-05T18:41:04.015Z,34.47
2019-02-05T18:43:37.290Z,36.23
2019-02-05T18:46:06.842Z,34.47
2019-02-05T18:48:36.298Z,37.70
2019-02-05T18:51:06.229Z,38.47
2019-02-05T18:53:36.229Z,35.17
2019-02-05T18:56:08.697Z,40.57
2019-02-05T18:58:38.178Z,42.20
2019-02-05T19:01:08.898Z,40.13
2019-02-05T19:03:38.531Z,38.83
2019-02-05T19:06:08.355Z,41.03
2019-02-05T19:08:37.900Z,44.60
2019-02-05T19:11:08.075Z,45.13
2019-02-05T19:13:37.629Z,43.53
2019-02-05T19:16:08.695Z,50.20
2019-02-05T19:18:38.316Z,51.93
2019-02-05T19:21:09.466Z,47.03
2019-02-05T19:23:41.238Z,49.73
2019-02-05T19:26:12.574Z,48.67
2019-02-05T19:28:42.138Z,52.13
2019-02-05T19:31:17.536Z,58.47
2019-02-05T19:33:47.458Z,58.27
2019-02-05T19:36:16.946Z,54.70
2019-02-05T19:38:46.799Z,59.10
2019-02-05T19:41:16.344Z,60.53
2019-02-05T19:43:46.644Z,54.33
2019-02-05T19:46:35.701Z,61.37
2019-02-05T19:49:07.371Z,57.47
2019-02-05T19:51:37.044Z,65.40
2019-02-05T19:54:06.572Z,59.83
2019-02-05T19:56:38.090Z,63.63
2019-02-05T19:59:08.845Z,70.53
2019-02-05T20:01:38.588Z,64.67
2019-02-05T20:04:08.212Z,64.10
2019-02-05T20:06:39.008Z,60.60
2019-02-05T20:09:14.447Z,63.97
2019-02-05T20:11:44.195Z,69.10
2019-02-05T20:14:15.383Z,64.97
2019-02-05T20:16:46.488Z,67.87
2019-02-05T20:19:18.741Z,65.57
2019-02-05T20:21:48.304Z,61.80
2019-02-05T20:24:21.825Z,59.33
2019-02-05T20:26:51.241Z,62.73
2019-02-05T20:29:21.416Z,62.70
2019-02-05T20:31:50.986Z,68.37
2019-02-05T20:34:21.830Z,67.50
2019-02-05T20:36:52.529Z,65.63
2019-02-05T20:39:25.242Z,79.57
2019-02-05T20:41:55.859Z,77.10
2019-02-05T20:44:25.356Z,67.90
2019-02-05T20:46:58.479Z,80.80
2019-02-05T20:49:28.446Z,68.80
2019-02-05T20:51:59.051Z,80.90
2019-02-05T20:54:29.106Z,66.60
2019-02-05T20:56:59.981Z,68.03
2019-02-05T20:59:32.917Z,70.07
2019-02-05T21:02:02.451Z,68.27
2019-02-05T21:04:35.283Z,80.67
2019-02-05T21:07:03.400Z,66.20
2019-02-05T21:09:33.264Z,74.30
2019-02-05T21:12:03.801Z,76.23
2019-02-05T21:14:33.403Z,77.50
2019-02-05T21:17:02.959Z,77.80
2019-02-05T21:19:32.644Z,72.70
2019-02-05T21:22:02.154Z,75.37
2019-02-05T21:24:31.756Z,84.43
2019-02-05T21:27:01.261Z,74.80
2019-02-05T21:29:31.431Z,70.50
2019-02-05T21:32:01.047Z,69.73
2019-02-05T21:34:30.878Z,71.20
2019-02-05T21:37:00.365Z,70.43
2019-02-05T21:39:29.834Z,68.07
2019-02-05T21:41:59.379Z,68.53
2019-02-05T21:44:30.154Z,79.27
2019-02-05T21:46:59.651Z,64.17
2019-02-05T21:49:29.586Z,68.90
2019-02-05T21:51:59.065Z,81.27
2019-02-05T21:54:28.641Z,73.63
2019-02-05T21:56:58.223Z,77.43
2019-02-05T21:59:27.683Z,75.40
2019-02-05T22:01:58.383Z,69.90
2019-02-05T22:04:28.455Z,72.87
2019-02-05T22:06:58.129Z,75.03
2019-02-05T22:09:28.027Z,73.97
2019-02-05T22:11:57.683Z,85.80
2019-02-05T22:14:27.220Z,67.23
2019-02-05T22:16:58.159Z,77.33
2019-02-05T22:19:27.837Z,78.93
2019-02-05T22:21:57.358Z,76.77
2019-02-05T22:24:26.888Z,74.30
2019-02-05T22:26:56.492Z,66.53
2019-02-05T22:29:25.968Z,85.17
2019-02-05T22:31:55.466Z,79.93
2019-02-05T22:34:25.290Z,82.40
2019-02-05T22:36:54.841Z,75.73
2019-02-05T22:39:24.827Z,77.13
2019-02-05T22:41:54.375Z,71.47
2019-02-05T22:44:24.022Z,74.50
2019-02-05T22:46:53.803Z,70.00
2019-02-05T22:49:23.430Z,75.47
2019-02-05T22:51:53.205Z,76.47
2019-02-05T22:54:22.683Z,72.03
2019-02-05T22:56:52.170Z,71.93
2019-02-05T22:59:21.910Z,68.20
2019-02-05T23:01:52.495Z,74.77
2019-02-05T23:04:25.205Z,73.30
2019-02-05T23:06:57.851Z,63.93
2019-02-05T23:09:33.097Z,80.63
2019-02-05T23:12:08.608Z,74.63
2019-02-05T23:14:38.210Z,75.30
2019-02-05T23:17:07.750Z,67.77
2019-02-05T23:19:37.305Z,74.13
2019-02-05T23:22:06.858Z,66.40
2019-02-05T23:24:36.381Z,68.30
2019-02-05T23:27:05.959Z,66.10
2019-02-05T23:29:35.479Z,71.07
2019-02-05T23:32:08.402Z,71.63
2019-02-05T23:34:37.865Z,72.37
2019-02-05T23:37:07.374Z,64.20
2019-02-05T23:39:37.407Z,68.57
2019-02-05T23:42:06.994Z,71.20
2019-02-05T23:44:36.448Z,73.57
2019-02-05T23:47:06.027Z,64.37
2019-02-05T23:49:35.540Z,73.27
2019-02-05T23:52:05.317Z,64.20
2019-02-05T23:54:34.847Z,70.65
2019-02-05T23:57:04.300Z,67.67
2019-02-05T23:59:33.750Z,67.97
